Time;durP1;ratioP1;P1;durP2;ratioP2;P2;SDS_P1;SDS_P2;PMS_P1;PMS_P2;Temp;Humidity;BMP_temperature;BMP_pressure;BME280_temperature;BME280_humidity;BME280_pressure;Samples;Min_cycle;Max_cycle;Signal;HPM_P1;HPM_P2
2022/08/12 00:45:13;;;;;;;9.43;4.30;;;18.50;99.90;;;;;;4986628;28;20113;-91
2022/08/12 00:47:39;;;;;;;8.48;4.38;;;18.50;99.90;;;;;;4968011;28;20479;-91
2022/08/12 00:50:06;;;;;;;10.18;4.35;;;18.50;99.90;;;;;;4969319;28;20039;-91
2022/08/12 00:52:33;;;;;;;9.57;4.50;;;18.40;99.90;;;;;;4952098;28;20097;-91
2022/08/12 00:55:01;;;;;;;8.68;4.28;;;18.50;99.90;;;;;;4953476;28;20484;-92
2022/08/12 00:57:35;;;;;;;9.80;4.40;;;18.40;99.90;;;;;;4966593;28;20038;-91
2022/08/12 01:00:09;;;;;;;9.50;4.38;;;18.40;99.90;;;;;;4952829;28;20038;-92
2022/08/12 01:02:39;;;;;;;8.57;4.13;;;18.40;99.90;;;;;;4951361;28;20047;-91
2022/08/12 01:13:31;;;;;;;12.95;5.38;;;18.20;99.90;;;;;;4981255;28;20047;-91
2022/08/12 01:16:00;;;;;;;10.07;4.50;;;18.30;99.90;;;;;;4953680;28;20153;-91
2022/08/12 01:18:29;;;;;;;8.90;4.57;;;18.20;99.90;;;;;;4966947;28;20078;-92
2022/08/12 01:21:30;;;;;;;9.65;4.47;;;18.20;99.90;;;;;;4966111;28;20439;-91
2022/08/12 01:24:16;;;;;;;9.35;4.47;;;18.20;99.90;;;;;;4947800;28;20039;-91
2022/08/12 01:26:45;;;;;;;9.52;5.30;;;18.20;99.90;;;;;;4968364;28;20035;-92
2022/08/12 01:29:14;;;;;;;10.95;4.80;;;18.20;99.90;;;;;;4970709;28;20114;-92
2022/08/12 01:31:42;;;;;;;9.93;4.57;;;18.10;99.90;;;;;;4965971;28;20038;-92
2022/08/12 01:34:14;;;;;;;11.25;4.90;;;18.10;99.90;;;;;;4979748;28;20068;-91
2022/08/12 01:36:58;;;;;;;8.90;4.40;;;18.30;99.90;;;;;;4952735;28;20042;-90
2022/08/12 01:39:33;;;;;;;9.68;4.60;;;18.10;99.90;;;;;;4968606;28;20058;-92
2022/08/12 01:42:09;;;;;;;9.05;4.68;;;18.10;99.90;;;;;;4983155;28;21532;-91
2022/08/12 01:44:36;;;;;;;9.02;4.50;;;18.10;99.90;;;;;;4967693;28;20042;-92
2022/08/12 01:47:21;;;;;;;10.23;4.75;;;18.00;99.90;;;;;;4954057;28;20027;-92
2022/08/12 01:49:49;;;;;;;9.65;5.05;;;18.00;99.90;;;;;;4952184;28;20125;-92
2022/08/12 01:52:30;;;;;;;12.20;4.70;;;18.00;99.90;;;;;;4967773;28;20089;-91
2022/08/12 01:54:57;;;;;;;9.63;4.30;;;18.00;99.90;;;;;;4985519;28;20049;-92
2022/08/12 01:57:43;;;;;;;13.20;4.70;;;18.00;99.90;;;;;;4950801;28;20046;-92
2022/08/12 02:00:12;;;;;;;10.35;5.00;;;18.00;99.90;;;;;;4952801;28;20039;-92
2022/08/12 02:03:07;;;;;;;9.10;4.82;;;17.90;99.90;;;;;;4964001;28;20137;-91
2022/08/12 02:11:34;;;;;;;9.45;4.85;;;17.90;99.90;;;;;;4965133;28;20060;-92
2022/08/12 02:14:28;;;;;;;10.00;5.07;;;17.90;99.90;;;;;;4966676;28;20125;-92
2022/08/12 02:17:15;;;;;;;10.43;4.90;;;17.90;99.90;;;;;;4966680;28;20042;-91
2022/08/12 02:19:56;;;;;;;12.02;4.57;;;17.80;99.90;;;;;;4956876;28;20507;-91
2022/08/12 02:22:41;;;;;;;10.13;5.10;;;17.80;99.90;;;;;;4969610;28;20042;-91
2022/08/12 02:25:15;;;;;;;11.30;5.07;;;17.80;99.90;;;;;;4984485;28;20277;-92
2022/08/12 02:27:44;;;;;;;10.57;5.28;;;17.80;99.90;;;;;;4967191;28;20046;-92
2022/08/12 02:30:18;;;;;;;11.20;5.57;;;17.70;99.90;;;;;;4969035;28;20042;-91
2022/08/12 02:32:45;;;;;;;9.00;5.20;;;17.70;99.90;;;;;;4964825;28;20249;-92
2022/08/12 02:35:18;;;;;;;12.15;5.60;;;17.70;99.90;;;;;;4948081;28;20478;-91
2022/08/12 02:37:46;;;;;;;9.75;5.72;;;17.70;99.90;;;;;;4967777;28;20121;-92
2022/08/12 02:40:14;;;;;;;10.30;5.25;;;17.70;99.90;;;;;;4968282;28;20055;-92
2022/08/12 02:43:10;;;;;;;12.35;5.38;;;17.70;99.90;;;;;;4964152;28;20035;-91
2022/08/12 02:45:55;;;;;;;11.77;5.30;;;17.60;99.90;;;;;;4950074;28;20403;-92
2022/08/12 02:48:47;;;;;;;11.27;5.45;;;17.60;99.90;;;;;;4967498;28;20304;-92
2022/08/12 02:51:22;;;;;;;10.43;4.80;;;17.60;99.90;;;;;;4969566;28;20066;-91
2022/08/12 02:53:49;;;;;;;10.68;5.28;;;17.60;99.90;;;;;;4953120;28;20073;-92
2022/08/12 02:56:16;;;;;;;11.40;5.43;;;17.50;99.90;;;;;;4964062;28;20090;-92
2022/08/12 02:58:45;;;;;;;10.48;5.30;;;17.50;99.90;;;;;;4961904;28;20563;-93
2022/08/12 03:01:11;;;;;;;10.75;5.18;;;17.50;99.90;;;;;;4962624;28;20554;-92
2022/08/12 03:03:40;;;;;;;10.80;6.03;;;17.50;99.90;;;;;;4949057;28;20097;-91
2022/08/12 03:06:20;;;;;;;10.95;6.07;;;17.50;99.90;;;;;;4966660;28;20149;-92
2022/08/12 03:08:47;;;;;;;11.13;5.90;;;17.50;99.90;;;;;;4966488;28;20105;-93
2022/08/12 03:11:20;;;;;;;12.07;5.95;;;17.50;99.90;;;;;;4945682;28;20045;-92
2022/08/12 03:13:56;;;;;;;10.68;5.60;;;17.40;99.90;;;;;;4982636;28;20043;-92
2022/08/12 03:16:22;;;;;;;10.23;5.60;;;17.40;99.90;;;;;;4963815;28;20030;-91
2022/08/12 03:18:50;;;;;;;10.30;5.78;;;17.40;99.90;;;;;;4964065;28;20098;-92
2022/08/12 03:21:18;;;;;;;11.55;5.65;;;17.40;99.90;;;;;;4963438;28;20039;-92
2022/08/12 03:23:45;;;;;;;10.30;5.75;;;17.40;99.90;;;;;;4965066;28;20081;-92
2022/08/12 03:26:13;;;;;;;10.40;5.40;;;17.40;99.90;;;;;;4963300;28;20093;-92
2022/08/12 03:28:56;;;;;;;11.88;5.70;;;17.40;99.90;;;;;;4947818;28;20057;-91
2022/08/12 03:31:23;;;;;;;11.55;5.43;;;17.30;99.90;;;;;;4965381;28;20057;-91
2022/08/12 03:33:50;;;;;;;11.68;5.68;;;17.30;99.90;;;;;;4949637;28;20110;-91
2022/08/12 03:36:19;;;;;;;10.85;5.18;;;17.30;99.90;;;;;;4964884;28;20550;-92
2022/08/12 03:39:40;;;;;;;12.57;5.57;;;17.30;99.90;;;;;;4964117;28;20389;-92
2022/08/12 03:41:53;;;;;;;9.73;4.90;;;17.30;99.90;;;;;;4958254;28;20042;-92
2022/08/12 04:01:24;;;;;;;11.00;5.25;;;17.10;99.90;;;;;;4968558;28;20058;-92
2022/08/12 04:03:51;;;;;;;11.55;5.28;;;17.10;99.90;;;;;;4984847;28;20035;-92
2022/08/12 04:06:22;;;;;;;11.77;5.63;;;17.00;99.90;;;;;;4950987;28;20065;-91
2022/08/12 04:08:56;;;;;;;10.77;5.50;;;17.00;99.90;;;;;;4971038;28;20046;-91
2022/08/12 04:14:19;;;;;;;9.50;5.25;;;17.00;99.90;;;;;;4985185;28;20504;-92
2022/08/12 04:16:49;;;;;;;11.35;5.47;;;17.00;99.90;;;;;;4969970;28;20046;-92
2022/08/12 04:19:16;;;;;;;10.52;5.57;;;16.90;99.90;;;;;;4969069;28;20118;-92
2022/08/12 04:21:42;;;;;;;10.45;5.30;;;16.90;99.90;;;;;;4969818;28;20542;-91
2022/08/12 04:24:09;;;;;;;11.25;5.32;;;16.90;99.90;;;;;;4985172;28;20042;-92
2022/08/12 04:26:35;;;;;;;9.43;4.93;;;16.90;99.90;;;;;;4967178;28;20031;-91
2022/08/12 04:29:02;;;;;;;10.43;4.95;;;16.90;99.90;;;;;;4968618;28;20046;-91
2022/08/12 04:31:32;;;;;;;10.00;5.15;;;16.90;99.90;;;;;;4968483;28;20458;-91
2022/08/12 04:33:59;;;;;;;10.60;5.20;;;16.90;99.90;;;;;;4956283;28;20046;-91
2022/08/12 04:36:25;;;;;;;12.60;5.50;;;16.90;99.90;;;;;;4971008;28;20192;-91
2022/08/12 04:38:53;;;;;;;11.60;4.75;;;17.00;99.90;;;;;;4938328;28;20050;-91
2022/08/12 04:41:20;;;;;;;11.07;5.05;;;17.00;99.90;;;;;;4966412;28;20050;-91
2022/08/12 04:43:46;;;;;;;10.98;5.00;;;17.00;99.90;;;;;;4952754;28;20034;-91
2022/08/12 04:46:11;;;;;;;12.23;5.38;;;17.00;99.90;;;;;;4967782;28;20157;-91
2022/08/12 04:48:37;;;;;;;10.10;5.10;;;17.00;99.90;;;;;;4969139;28;20114;-92
2022/08/12 04:51:04;;;;;;;10.70;5.25;;;17.00;99.90;;;;;;4969457;28;20054;-90
2022/08/12 04:53:30;;;;;;;10.77;5.30;;;17.00;99.90;;;;;;4953817;28;20434;-93
2022/08/12 04:55:56;;;;;;;16.70;5.68;;;17.00;99.90;;;;;;4947489;28;20045;-92
2022/08/12 04:58:22;;;;;;;10.85;4.95;;;17.00;99.90;;;;;;4969012;28;20039;-91
2022/08/12 05:00:48;;;;;;;10.00;4.70;;;17.10;99.90;;;;;;4964823;28;20468;-91
2022/08/12 05:03:14;;;;;;;10.85;4.90;;;17.00;99.90;;;;;;4970914;28;20551;-92
2022/08/12 05:05:41;;;;;;;10.10;4.70;;;17.10;99.90;;;;;;4953979;28;20181;-92
2022/08/12 05:08:15;;;;;;;9.98;4.80;;;17.20;99.90;;;;;;4969456;28;20356;-91
2022/08/12 05:10:46;;;;;;;11.20;4.88;;;17.20;99.90;;;;;;4953257;28;20050;-91
2022/08/12 05:13:15;;;;;;;9.68;4.60;;;17.20;99.90;;;;;;4938538;28;20038;-92
2022/08/12 05:15:44;;;;;;;9.68;4.30;;;17.30;99.90;;;;;;4968787;28;20066;-91
2022/08/12 05:18:10;;;;;;;9.98;4.43;;;17.30;99.90;;;;;;4969513;28;20567;-91
2022/08/12 05:20:37;;;;;;;8.82;4.40;;;17.40;99.90;;;;;;4968046;28;20054;-92
2022/08/12 05:23:07;;;;;;;11.85;4.85;;;17.40;99.90;;;;;;4986585;28;20059;-92
2022/08/12 05:25:33;;;;;;;8.35;3.92;;;17.50;99.90;;;;;;4951527;28;20043;-92
2022/08/12 05:27:59;;;;;;;9.75;4.25;;;17.60;99.90;;;;;;4953320;28;20518;-91
2022/08/12 05:30:32;;;;;;;9.52;4.65;;;17.60;99.90;;;;;;4965587;28;20046;-91
2022/08/12 05:32:58;;;;;;;9.32;3.97;;;17.70;99.90;;;;;;4963542;28;20074;-92
2022/08/12 05:35:24;;;;;;;8.93;3.90;;;17.70;99.90;;;;;;4947417;28;20068;-92
2022/08/12 05:38:54;;;;;;;11.18;4.50;;;17.90;99.90;;;;;;4931672;28;20130;-91
2022/08/12 05:40:36;;;;;;;11.57;4.10;;;18.00;99.90;;;;;;4959174;28;20062;-91
2022/08/12 05:43:01;;;;;;;10.45;4.53;;;18.10;99.90;;;;;;4962949;28;20039;-91
2022/08/12 05:45:27;;;;;;;10.00;4.20;;;18.20;99.90;;;;;;4949018;28;20053;-91
2022/08/12 05:47:53;;;;;;;10.32;4.43;;;18.30;99.90;;;;;;4951391;28;20490;-91
2022/08/12 05:50:18;;;;;;;10.02;4.50;;;18.50;99.90;;;;;;4937613;28;20104;-91
2022/08/12 05:52:44;;;;;;;9.75;4.13;;;18.60;99.90;;;;;;4972948;28;20066;-91
2022/08/12 05:55:10;;;;;;;8.85;4.00;;;18.80;99.90;;;;;;4957561;28;20191;-91
2022/08/12 05:57:35;;;;;;;9.43;4.10;;;18.80;99.90;;;;;;4944032;28;20039;-91
2022/08/12 06:00:03;;;;;;;9.00;4.05;;;18.90;99.90;;;;;;4923323;28;20511;-93
2022/08/12 06:02:28;;;;;;;10.57;3.72;;;19.00;99.90;;;;;;4963857;28;20142;-91
2022/08/12 06:04:56;;;;;;;11.25;3.92;;;19.10;99.90;;;;;;4947527;28;20123;-92
2022/08/12 06:07:23;;;;;;;8.38;3.67;;;19.20;99.90;;;;;;4981125;28;20217;-91
2022/08/12 06:09:49;;;;;;;9.52;3.80;;;19.30;99.90;;;;;;4962852;28;20511;-90
2022/08/12 06:12:22;;;;;;;8.35;3.60;;;19.30;99.90;;;;;;4961353;28;20057;-91
2022/08/12 06:14:48;;;;;;;10.55;3.42;;;19.40;99.90;;;;;;4976352;28;20050;-90
2022/08/12 06:17:14;;;;;;;10.15;3.80;;;19.50;99.90;;;;;;4964482;28;20042;-91
2022/08/12 06:19:40;;;;;;;9.05;3.63;;;19.60;99.90;;;;;;4963662;28;20035;-89
2022/08/12 06:22:06;;;;;;;8.75;3.47;;;19.60;99.90;;;;;;4959482;28;20039;-93
2022/08/12 06:24:32;;;;;;;7.60;3.42;;;19.80;99.90;;;;;;4976227;28;20160;-90
2022/08/12 06:26:58;;;;;;;9.00;3.55;;;19.90;99.90;;;;;;4945138;28;20166;-90
2022/08/12 06:29:24;;;;;;;9.70;3.20;;;20.00;99.90;;;;;;4934753;28;20046;-91
2022/08/12 06:31:51;;;;;;;10.98;3.42;;;20.10;99.90;;;;;;4942118;28;20090;-89
2022/08/12 06:34:17;;;;;;;10.45;4.00;;;20.20;99.90;;;;;;4954698;28;20038;-92
2022/08/12 06:36:45;;;;;;;16.52;3.53;;;20.20;99.90;;;;;;4944509;28;20058;-90
2022/08/12 06:39:12;;;;;;;8.13;3.47;;;20.30;99.90;;;;;;4946094;28;20062;-91
2022/08/12 06:44:22;;;;;;;11.15;3.28;;;20.50;99.90;;;;;;4958282;28;20066;-90
2022/08/12 06:46:47;;;;;;;8.63;3.00;;;20.60;99.90;;;;;;4928534;28;20069;-90
2022/08/12 06:49:13;;;;;;;9.95;2.92;;;20.70;99.90;;;;;;4960663;28;20062;-91
2022/08/12 06:51:39;;;;;;;9.90;3.10;;;20.80;99.90;;;;;;4957696;28;20038;-89
2022/08/12 06:54:05;;;;;;;9.80;3.25;;;20.90;99.90;;;;;;4972708;28;20047;-89
2022/08/12 06:56:31;;;;;;;8.82;3.08;;;21.10;99.90;;;;;;4934940;28;20186;-91
2022/08/12 06:58:57;;;;;;;9.50;3.20;;;21.20;99.90;;;;;;4960694;28;20129;-91
2022/08/12 07:01:23;;;;;;;11.75;3.42;;;21.30;99.90;;;;;;4946740;28;20062;-88
2022/08/12 07:03:50;;;;;;;11.75;3.45;;;21.40;99.90;;;;;;4973186;28;20090;-89
2022/08/12 07:06:15;;;;;;;10.10;3.40;;;21.40;99.90;;;;;;4943909;28;20527;-91
2022/08/12 07:08:44;;;;;;;8.63;3.10;;;21.50;99.90;;;;;;4945822;28;20043;-90
2022/08/12 07:11:12;;;;;;;10.25;3.10;;;21.60;99.90;;;;;;4962881;28;20043;-90
2022/08/12 07:13:44;;;;;;;8.75;3.78;;;21.80;99.90;;;;;;4975711;28;20101;-87
2022/08/12 07:16:15;;;;;;;7.25;2.80;;;21.90;99.90;;;;;;4960294;28;20113;-90
2022/08/12 07:18:43;;;;;;;10.30;3.22;;;22.10;99.90;;;;;;4975831;28;20082;-88
2022/08/12 07:21:11;;;;;;;7.35;2.92;;;22.10;99.90;;;;;;4942221;28;20094;-90
2022/08/12 07:23:38;;;;;;;11.50;3.70;;;22.20;99.90;;;;;;4951081;28;20361;-90
2022/08/12 07:26:06;;;;;;;9.43;3.00;;;22.30;99.90;;;;;;4958999;28;20097;-90
2022/08/12 07:28:35;;;;;;;11.25;3.40;;;22.40;99.90;;;;;;4959474;28;21427;-90
2022/08/12 07:31:08;;;;;;;8.32;3.15;;;22.50;99.90;;;;;;4963146;28;20031;-89
2022/08/12 07:33:38;;;;;;;8.10;2.67;;;22.50;99.90;;;;;;4955425;28;20118;-89
2022/08/12 07:36:12;;;;;;;8.90;3.28;;;22.70;99.90;;;;;;4949945;28;20066;-90
2022/08/12 07:38:43;;;;;;;10.25;3.40;;;22.80;99.90;;;;;;4970682;28;20050;-91
2022/08/12 07:41:14;;;;;;;8.25;3.22;;;22.80;99.90;;;;;;4975842;28;20500;-91
2022/08/12 07:43:43;;;;;;;9.00;3.10;;;22.90;99.90;;;;;;4962861;28;20078;-91
2022/08/12 07:46:14;;;;;;;8.88;3.33;;;22.90;99.90;;;;;;4966288;28;20074;-90
2022/08/12 07:48:45;;;;;;;9.07;3.00;;;23.00;99.90;;;;;;4962177;28;20556;-89
2022/08/12 07:51:12;;;;;;;7.65;2.88;;;23.20;99.90;;;;;;4969641;28;20500;-90
2022/08/12 07:53:38;;;;;;;8.98;3.42;;;23.30;99.90;;;;;;4945208;28;20037;-90
2022/08/12 07:56:05;;;;;;;8.50;3.10;;;23.40;99.90;;;;;;4968252;28;20035;-91
2022/08/12 07:58:32;;;;;;;9.05;2.78;;;23.50;99.90;;;;;;4946332;28;20102;-90
2022/08/12 08:01:01;;;;;;;7.30;2.90;;;23.70;99.90;;;;;;4937032;28;20045;-91
2022/08/12 08:03:28;;;;;;;9.55;2.78;;;23.80;99.90;;;;;;4982510;28;20423;-90
2022/08/12 08:05:55;;;;;;;9.93;3.30;;;23.90;99.90;;;;;;4944606;28;20039;-91
2022/08/12 08:08:27;;;;;;;8.63;2.58;;;24.00;99.90;;;;;;4946187;28;20035;-91
2022/08/12 08:12:52;;;;;;;7.45;3.05;;;24.20;99.90;;;;;;4946099;28;20053;-92
2022/08/12 08:13:44;;;;;;;9.43;3.00;;;24.40;99.90;;;;;;4962856;28;20039;-91
2022/08/12 08:16:10;;;;;;;8.32;2.90;;;24.30;99.90;;;;;;4974644;28;20361;-89
2022/08/12 08:18:36;;;;;;;6.45;2.40;;;24.50;99.90;;;;;;4978506;28;20032;-92
2022/08/12 08:21:03;;;;;;;8.02;2.85;;;24.60;99.90;;;;;;4962634;28;20031;-89
2022/08/12 08:26:15;;;;;;;9.80;2.83;;;24.60;99.90;;;;;;4961247;28;20570;-92
2022/08/12 08:28:41;;;;;;;9.35;2.95;;;24.70;99.90;;;;;;4962495;28;20384;-90
2022/08/12 08:31:07;;;;;;;10.00;2.88;;;24.80;99.90;;;;;;4949161;28;20531;-90
2022/08/12 08:33:33;;;;;;;9.20;2.95;;;24.90;99.90;;;;;;4952316;28;20070;-90
2022/08/12 08:35:59;;;;;;;9.00;2.60;;;24.90;99.90;;;;;;4952679;28;20495;-91
2022/08/12 08:38:25;;;;;;;7.13;2.55;;;24.90;99.90;;;;;;4947105;28;20189;-91
2022/08/12 08:43:35;;;;;;;8.95;2.58;;;25.10;99.90;;;;;;4967862;28;20039;-91
2022/08/12 08:46:04;;;;;;;11.27;2.58;;;25.10;99.90;;;;;;4963326;28;20039;-91
2022/08/12 08:48:33;;;;;;;7.18;3.00;;;25.30;99.90;;;;;;4963777;28;20379;-90
2022/08/12 08:50:59;;;;;;;8.32;2.70;;;25.40;99.90;;;;;;4981629;28;20446;-90
2022/08/12 08:53:25;;;;;;;8.93;2.72;;;25.50;99.90;;;;;;4958569;28;20035;-91
2022/08/12 08:55:52;;;;;;;10.70;2.92;;;25.50;99.90;;;;;;4960150;28;20094;-90
2022/08/12 08:58:20;;;;;;;9.23;3.40;;;25.60;99.90;;;;;;4985301;28;20097;-91
2022/08/12 09:00:49;;;;;;;10.57;3.00;;;25.70;99.90;;;;;;4965168;28;20488;-89
2022/08/12 09:03:16;;;;;;;7.30;2.72;;;25.80;99.90;;;;;;4964403;28;20165;-90
2022/08/12 09:05:42;;;;;;;7.78;2.90;;;25.80;99.90;;;;;;4959396;28;20073;-91
2022/08/12 09:08:08;;;;;;;9.98;2.63;;;25.80;99.90;;;;;;4958417;28;20045;-92
2022/08/12 09:10:35;;;;;;;8.95;2.50;;;25.90;99.90;;;;;;4955731;28;20117;-91
2022/08/12 09:15:46;;;;;;;10.32;2.67;;;26.10;99.90;;;;;;4970513;28;20130;-89
2022/08/12 09:18:14;;;;;;;6.93;2.55;;;26.30;99.90;;;;;;4943079;28;20042;-91
2022/08/12 09:20:41;;;;;;;8.32;2.58;;;26.40;99.90;;;;;;4968709;28;20031;-91
2022/08/12 09:23:09;;;;;;;8.95;2.50;;;26.40;99.90;;;;;;4971474;28;20081;-91
2022/08/12 09:25:39;;;;;;;7.45;2.58;;;26.50;99.90;;;;;;4984630;28;20070;-91
2022/08/12 09:28:09;;;;;;;7.45;2.33;;;26.60;99.90;;;;;;4935644;28;20039;-91
2022/08/12 09:30:36;;;;;;;9.50;2.80;;;26.70;99.90;;;;;;4946551;28;20050;-90
2022/08/12 09:33:03;;;;;;;9.40;2.67;;;26.80;99.90;;;;;;4942708;28;20475;-92
2022/08/12 09:35:32;;;;;;;9.55;2.85;;;26.80;99.90;;;;;;4946099;28;20508;-90
2022/08/12 09:38:01;;;;;;;10.23;2.88;;;26.90;99.90;;;;;;4961197;28;20085;-91
2022/08/12 09:40:28;;;;;;;7.88;2.67;;;26.90;99.90;;;;;;4949905;28;20062;-94
2022/08/12 09:45:48;;;;;;;8.10;2.72;;;27.00;99.90;;;;;;4960528;28;20038;-90
2022/08/12 09:48:16;;;;;;;11.48;2.65;;;27.10;99.90;;;;;;4961521;28;20035;-91
2022/08/12 09:50:43;;;;;;;8.07;2.50;;;27.10;99.90;;;;;;4949713;28;20183;-91
2022/08/12 09:53:10;;;;;;;8.68;2.47;;;27.30;99.90;;;;;;4945301;28;20043;-91
2022/08/12 09:55:36;;;;;;;7.57;2.78;;;27.40;99.90;;;;;;4951861;28;20122;-89
2022/08/12 09:58:03;;;;;;;7.63;2.50;;;27.50;99.90;;;;;;4966116;28;20487;-92
2022/08/12 10:00:33;;;;;;;9.85;2.85;;;27.50;99.90;;;;;;4965469;28;20039;-91
2022/08/12 10:03:09;;;;;;;6.85;2.45;;;27.60;99.90;;;;;;4941616;28;20093;-91
2022/08/12 10:05:39;;;;;;;7.72;2.65;;;27.70;99.90;;;;;;4959680;28;20058;-89
2022/08/12 10:08:10;;;;;;;7.05;2.30;;;27.80;99.90;;;;;;4962698;28;20046;-91
2022/08/12 10:13:40;;;;;;;7.10;2.42;;;27.80;99.90;;;;;;4977199;28;20104;-90
2022/08/12 10:16:16;;;;;;;7.88;2.60;;;27.90;99.90;;;;;;4964270;28;20077;-91
2022/08/12 10:19:04;;;;;;;9.77;3.00;;;27.90;99.90;;;;;;4962159;28;20562;-91
2022/08/12 10:21:36;;;;;;;7.72;2.40;;;28.00;99.90;;;;;;4963054;28;20126;-90
2022/08/12 10:24:07;;;;;;;9.70;3.00;;;28.10;99.90;;;;;;4945535;28;20364;-91
2022/08/12 10:32:05;;;;;;;7.22;2.60;;;28.20;99.90;;;;;;4975620;28;20101;-90
2022/08/12 10:34:31;;;;;;;9.23;2.30;;;28.30;99.90;;;;;;4976362;28;20043;-90
2022/08/12 10:36:59;;;;;;;7.20;2.45;;;28.40;99.90;;;;;;4964718;28;20559;-89
2022/08/12 10:39:32;;;;;;;6.88;2.20;;;28.40;99.90;;;;;;4965118;28;20599;-90
2022/08/12 10:44:48;;;;;;;6.80;2.50;;;28.60;99.90;;;;;;4966166;28;20047;-91
2022/08/12 10:47:20;;;;;;;12.27;2.40;;;28.70;99.90;;;;;;4968210;28;20035;-91
2022/08/12 10:49:47;;;;;;;9.68;2.50;;;28.60;99.50;;;;;;4968383;28;20050;-90
2022/08/12 10:52:13;;;;;;;6.63;2.30;;;28.70;99.10;;;;;;4941211;28;20055;-91
2022/08/12 10:54:40;;;;;;;6.97;2.28;;;28.70;99.20;;;;;;4964649;28;20538;-92
2022/08/12 10:57:07;;;;;;;6.95;2.45;;;28.70;99.00;;;;;;4959187;28;20046;-90
2022/08/12 10:59:32;;;;;;;7.72;2.35;;;28.90;98.70;;;;;;4946356;28;20039;-91
2022/08/12 11:01:59;;;;;;;9.05;2.25;;;28.90;98.70;;;;;;4982831;28;20189;-91
2022/08/12 11:04:28;;;;;;;10.45;2.70;;;28.90;98.50;;;;;;4951001;28;20075;-92
2022/08/12 11:06:55;;;;;;;5.68;2.30;;;28.90;98.40;;;;;;4962867;28;20042;-92
2022/08/12 11:09:32;;;;;;;8.82;2.28;;;29.00;98.70;;;;;;4950066;28;20101;-92
2022/08/12 11:12:04;;;;;;;6.68;2.20;;;29.10;98.80;;;;;;4951991;28;20047;-92
2022/08/12 11:14:32;;;;;;;7.82;2.45;;;29.10;98.20;;;;;;4959043;28;20035;-92
2022/08/12 11:17:00;;;;;;;7.03;2.30;;;29.10;98.30;;;;;;4954018;28;20050;-92
2022/08/12 11:19:27;;;;;;;8.98;2.33;;;29.20;98.00;;;;;;4986643;28;20115;-90
2022/08/12 11:21:54;;;;;;;8.50;2.33;;;29.20;98.30;;;;;;4966638;28;20043;-91
2022/08/12 11:24:20;;;;;;;8.80;2.47;;;29.20;98.10;;;;;;4966434;28;20113;-90
2022/08/12 11:26:48;;;;;;;7.75;2.20;;;29.40;98.30;;;;;;4984222;28;20459;-92
2022/08/12 11:29:17;;;;;;;6.90;2.38;;;29.40;98.40;;;;;;4957488;28;20051;-92
2022/08/12 11:31:43;;;;;;;11.00;2.47;;;29.50;98.30;;;;;;4967780;28;20046;-92
2022/08/12 11:34:10;;;;;;;7.22;2.53;;;29.70;98.20;;;;;;4969184;28;20042;-92
2022/08/12 11:36:36;;;;;;;7.63;2.45;;;29.70;98.10;;;;;;4949754;28;20492;-92
2022/08/12 11:39:03;;;;;;;6.78;2.20;;;29.70;97.80;;;;;;4948567;28;20054;-92
2022/08/12 11:41:31;;;;;;;8.25;2.47;;;29.70;97.20;;;;;;4971191;28;20045;-92
2022/08/12 11:43:57;;;;;;;5.55;2.22;;;29.60;96.90;;;;;;4970931;28;20054;-91
2022/08/12 11:46:22;;;;;;;7.32;2.20;;;29.70;97.10;;;;;;4949480;28;20046;-91
2022/08/12 11:48:48;;;;;;;7.32;2.40;;;29.70;96.90;;;;;;4964074;28;20075;-90
2022/08/12 11:51:14;;;;;;;8.23;2.30;;;29.70;96.60;;;;;;4965453;28;20498;-91
2022/08/12 11:53:39;;;;;;;7.00;2.10;;;29.70;96.50;;;;;;4951497;28;20053;-91
2022/08/12 11:56:06;;;;;;;5.90;2.20;;;29.70;96.40;;;;;;4953878;28;20090;-91
2022/08/12 11:58:33;;;;;;;8.48;2.60;;;29.70;96.70;;;;;;4958921;28;20039;-90
2022/08/12 12:00:58;;;;;;;6.18;2.30;;;29.80;96.80;;;;;;4973876;28;20046;-91
2022/08/12 12:03:24;;;;;;;7.85;2.45;;;29.90;96.30;;;;;;4970308;28;20047;-89
2022/08/12 12:05:50;;;;;;;8.80;2.30;;;29.90;96.20;;;;;;4953131;28;20113;-91
2022/08/12 12:08:23;;;;;;;6.50;2.40;;;29.90;95.70;;;;;;4950808;28;20560;-90
2022/08/12 12:10:50;;;;;;;6.28;2.25;;;29.90;95.50;;;;;;4973603;28;20523;-92
2022/08/12 12:13:16;;;;;;;7.65;2.17;;;29.90;95.20;;;;;;4948764;28;20117;-92
2022/08/12 12:15:43;;;;;;;6.78;2.10;;;30.00;95.30;;;;;;4969151;28;20534;-91
2022/08/12 12:18:19;;;;;;;7.07;2.20;;;30.10;95.40;;;;;;4951216;28;20055;-93
2022/08/12 12:20:45;;;;;;;6.25;2.20;;;30.10;94.60;;;;;;4975926;28;20057;-91
2022/08/12 12:23:10;;;;;;;6.72;1.90;;;30.10;94.30;;;;;;4944357;28;20111;-91
2022/08/12 12:25:36;;;;;;;5.63;2.00;;;30.00;94.20;;;;;;4947306;28;20040;-92
2022/08/12 12:28:02;;;;;;;7.22;2.33;;;30.10;94.30;;;;;;4937308;28;20039;-91
2022/08/12 12:30:28;;;;;;;8.15;2.00;;;30.10;94.30;;;;;;4951049;28;20559;-92
2022/08/12 12:32:53;;;;;;;5.35;2.00;;;30.10;94.10;;;;;;4959693;28;20131;-91
2022/08/12 12:35:19;;;;;;;7.82;2.20;;;30.10;93.60;;;;;;4949063;28;20085;-90
2022/08/12 12:37:51;;;;;;;5.60;2.00;;;30.10;93.60;;;;;;4953382;28;20484;-94
2022/08/12 12:40:17;;;;;;;6.28;2.00;;;30.20;92.90;;;;;;4961063;28;20050;-92
2022/08/12 12:42:43;;;;;;;7.07;2.20;;;30.10;93.60;;;;;;4945004;28;20043;-93
2022/08/12 12:45:09;;;;;;;5.55;1.98;;;30.20;93.40;;;;;;4947363;28;20039;-93
2022/08/12 12:47:35;;;;;;;7.00;2.10;;;30.30;93.40;;;;;;4962483;28;20524;-91
2022/08/12 12:50:01;;;;;;;6.85;1.92;;;30.10;92.40;;;;;;4978341;28;20062;-93
2022/08/12 12:52:26;;;;;;;9.25;2.25;;;30.20;92.50;;;;;;4963347;28;20707;-89
2022/08/12 12:54:54;;;;;;;6.88;1.92;;;30.20;91.90;;;;;;4949372;28;20046;-92
2022/08/12 12:57:23;;;;;;;7.43;1.85;;;30.20;92.00;;;;;;4964918;28;20057;-91
2022/08/12 13:00:13;;;;;;;6.13;2.10;;;30.20;91.80;;;;;;4952311;28;20408;-91
2022/08/12 13:02:39;;;;;;;5.57;1.70;;;30.20;91.30;;;;;;4949018;28;20141;-90
2022/08/12 13:05:06;;;;;;;5.25;1.92;;;30.40;91.80;;;;;;4945905;28;20496;-92
2022/08/12 13:07:40;;;;;;;7.72;2.08;;;30.30;91.30;;;;;;4966422;28;20027;-92
2022/08/12 13:10:07;;;;;;;6.88;2.17;;;30.30;91.30;;;;;;4962558;28;20071;-90
2022/08/12 13:12:33;;;;;;;6.90;2.10;;;30.30;91.40;;;;;;4944498;28;20034;-91
2022/08/12 13:15:01;;;;;;;7.05;2.08;;;30.30;91.70;;;;;;4944356;28;20465;-92
2022/08/12 13:17:30;;;;;;;6.25;2.00;;;30.30;91.80;;;;;;4949860;28;20061;-90
2022/08/12 13:20:05;;;;;;;7.03;1.90;;;30.30;92.00;;;;;;4945836;28;20030;-90
2022/08/12 13:22:32;;;;;;;4.07;1.80;;;30.30;92.20;;;;;;4966377;28;20035;-89
2022/08/12 13:24:58;;;;;;;5.95;1.90;;;30.30;91.30;;;;;;4971714;28;20041;-90
2022/08/12 13:27:56;;;;;;;4.75;1.80;;;30.40;91.60;;;;;;4968875;28;20451;-90
2022/08/12 13:30:24;;;;;;;6.55;1.80;;;30.50;91.30;;;;;;4920252;28;20050;-89
2022/08/12 13:32:58;;;;;;;5.85;1.90;;;30.40;91.60;;;;;;4938353;28;20045;-91
2022/08/12 13:35:29;;;;;;;6.15;2.10;;;30.40;91.40;;;;;;4942871;28;20066;-90
2022/08/12 13:37:56;;;;;;;7.72;2.00;;;30.50;91.80;;;;;;4970287;28;20055;-90
2022/08/12 13:40:32;;;;;;;5.95;1.98;;;30.50;91.50;;;;;;4991215;28;20097;-90
2022/08/12 13:43:00;;;;;;;6.30;1.80;;;30.50;91.10;;;;;;4974790;28;20487;-89
2022/08/12 13:45:30;;;;;;;7.40;1.85;;;30.50;91.30;;;;;;4986083;28;20039;-91
2022/08/12 13:47:59;;;;;;;6.88;2.13;;;30.60;91.50;;;;;;4954696;28;20113;-89
2022/08/12 13:50:32;;;;;;;5.47;1.98;;;30.60;91.00;;;;;;4968826;28;20046;-90
2022/08/12 13:53:08;;;;;;;6.65;2.05;;;30.60;90.50;;;;;;4970678;28;20046;-90
2022/08/12 13:55:35;;;;;;;6.15;1.98;;;30.60;90.70;;;;;;4953910;28;20178;-91
2022/08/12 13:58:04;;;;;;;5.78;1.83;;;30.50;91.00;;;;;;4986618;28;20526;-90
2022/08/12 14:00:31;;;;;;;7.03;2.03;;;30.50;91.00;;;;;;4953994;28;20113;-91
2022/08/12 14:02:58;;;;;;;6.60;1.92;;;30.50;90.80;;;;;;4954072;28;20085;-90
2022/08/12 14:05:25;;;;;;;6.82;2.20;;;30.50;90.30;;;;;;4966808;28;20042;-90
2022/08/12 14:08:04;;;;;;;4.80;1.80;;;30.60;90.70;;;;;;4983391;28;20039;-91
2022/08/12 14:10:37;;;;;;;6.57;2.08;;;30.50;88.90;;;;;;4969500;28;20487;-91
2022/08/12 14:13:05;;;;;;;;;;;30.50;90.00;;;;;;4956193;28;20070;-91
2022/08/12 14:15:32;;;;;;;5.05;1.80;;;30.60;88.80;;;;;;4988095;28;19993;-90
2022/08/12 14:18:07;;;;;;;6.18;2.00;;;30.80;90.20;;;;;;4970107;28;20046;-91
2022/08/12 14:20:32;;;;;;;5.60;1.80;;;30.70;86.70;;;;;;4985068;28;20043;-91
2022/08/12 14:22:58;;;;;;;6.43;2.00;;;30.70;89.00;;;;;;4951122;28;20043;-91
2022/08/12 14:25:27;;;;;;;7.20;2.33;;;30.70;90.20;;;;;;4951221;28;20047;-89
2022/08/12 14:27:54;;;;;;;7.32;1.98;;;30.70;90.70;;;;;;4937790;28;20039;-89
2022/08/12 14:30:22;;;;;;;6.35;1.70;;;30.60;90.50;;;;;;4970100;28;20042;-91
2022/08/12 14:32:47;;;;;;;6.95;2.03;;;30.60;90.70;;;;;;4985890;28;20108;-91
2022/08/12 14:35:13;;;;;;;4.28;1.80;;;30.60;90.80;;;;;;4953765;28;20050;-90
2022/08/12 14:37:40;;;;;;;4.90;1.90;;;30.60;90.80;;;;;;4949328;28;20047;-90